sensor_id;sensor_type;location;lat;lon;timestamp;temperature;humidity
31967;DHT22;18496;52.042;6.812;2022-09-27T00:00:26;13.00;99.90
31967;DHT22;18496;52.042;6.812;2022-09-27T00:02:29;13.00;99.90
31967;DHT22;18496;52.042;6.812;2022-09-27T00:04:33;13.00;99.90
31967;DHT22;18496;52.042;6.812;2022-09-27T00:06:36;13.00;99.90
31967;DHT22;18496;52.042;6.812;2022-09-27T00:08:40;13.10;99.90
31967;DHT22;18496;52.042;6.812;2022-09-27T00:10:44;13.00;99.90
31967;DHT22;18496;52.042;6.812;2022-09-27T00:12:48;13.00;99.90
31967;DHT22;18496;52.042;6.812;2022-09-27T00:14:51;13.00;99.90
31967;DHT22;18496;52.042;6.812;2022-09-27T00:16:55;13.00;99.90
31967;DHT22;18496;52.042;6.812;2022-09-27T00:18:59;13.00;99.90
31967;DHT22;18496;52.042;6.812;2022-09-27T00:21:07;13.00;99.90
31967;DHT22;18496;52.042;6.812;2022-09-27T00:23:11;13.00;99.90
31967;DHT22;18496;52.042;6.812;2022-09-27T00:25:14;12.90;99.90
31967;DHT22;18496;52.042;6.812;2022-09-27T00:27:18;13.00;99.90
31967;DHT22;18496;52.042;6.812;2022-09-27T00:29:22;12.90;99.90
31967;DHT22;18496;52.042;6.812;2022-09-27T00:31:27;12.90;99.90
31967;DHT22;18496;52.042;6.812;2022-09-27T00:33:31;12.90;99.90
31967;DHT22;18496;52.042;6.812;2022-09-27T00:35:35;12.80;99.90
31967;DHT22;18496;52.042;6.812;2022-09-27T00:37:39;12.90;99.90
31967;DHT22;18496;52.042;6.812;2022-09-27T00:39:42;12.80;99.90
31967;DHT22;18496;52.042;6.812;2022-09-27T00:41:47;12.80;99.90
31967;DHT22;18496;52.042;6.812;2022-09-27T00:45:55;12.70;99.90
31967;DHT22;18496;52.042;6.812;2022-09-27T00:48:00;12.70;99.90
31967;DHT22;18496;52.042;6.812;2022-09-27T00:50:19;12.70;99.90
31967;DHT22;18496;52.042;6.812;2022-09-27T00:54:28;12.70;99.90
31967;DHT22;18496;52.042;6.812;2022-09-27T00:56:32;12.70;99.90
31967;DHT22;18496;52.042;6.812;2022-09-27T00:58:37;12.70;99.90
31967;DHT22;18496;52.042;6.812;2022-09-27T01:00:43;12.70;99.90
31967;DHT22;18496;52.042;6.812;2022-09-27T01:02:48;12.70;99.90
31967;DHT22;18496;52.042;6.812;2022-09-27T01:04:53;12.70;99.90
31967;DHT22;18496;52.042;6.812;2022-09-27T01:06:57;12.70;99.90
31967;DHT22;18496;52.042;6.812;2022-09-27T01:09:02;12.70;99.90
31967;DHT22;18496;52.042;6.812;2022-09-27T01:17:39;12.60;99.90
31967;DHT22;18496;52.042;6.812;2022-09-27T01:20:06;12.60;99.90
31967;DHT22;18496;52.042;6.812;2022-09-27T01:24:32;12.70;99.90
31967;DHT22;18496;52.042;6.812;2022-09-27T01:28:54;12.60;99.90
31967;DHT22;18496;52.042;6.812;2022-09-27T01:31:01;12.60;99.90
31967;DHT22;18496;52.042;6.812;2022-09-27T01:35:13;12.50;99.90
31967;DHT22;18496;52.042;6.812;2022-09-27T01:37:37;12.50;99.90
31967;DHT22;18496;52.042;6.812;2022-09-27T01:44:51;12.40;99.90
31967;DHT22;18496;52.042;6.812;2022-09-27T01:47:03;12.40;99.90
31967;DHT22;18496;52.042;6.812;2022-09-27T01:49:47;12.40;99.90
31967;DHT22;18496;52.042;6.812;2022-09-27T01:51:56;12.40;99.90
31967;DHT22;18496;52.042;6.812;2022-09-27T01:54:05;12.40;99.90
31967;DHT22;18496;52.042;6.812;2022-09-27T01:56:37;12.40;99.90
31967;DHT22;18496;52.042;6.812;2022-09-27T01:59:02;12.40;99.90
31967;DHT22;18496;52.042;6.812;2022-09-27T02:01:08;12.40;99.90
31967;DHT22;18496;52.042;6.812;2022-09-27T02:03:15;12.40;99.90
31967;DHT22;18496;52.042;6.812;2022-09-27T02:05:56;12.40;99.90
31967;DHT22;18496;52.042;6.812;2022-09-27T02:08:32;12.40;99.90
31967;DHT22;18496;52.042;6.812;2022-09-27T02:10:42;12.40;99.90
31967;DHT22;18496;52.042;6.812;2022-09-27T02:13:02;12.40;99.90
31967;DHT22;18496;52.042;6.812;2022-09-27T02:15:08;12.40;99.90
31967;DHT22;18496;52.042;6.812;2022-09-27T02:17:33;12.40;99.90
31967;DHT22;18496;52.042;6.812;2022-09-27T02:20:25;12.40;99.90
31967;DHT22;18496;52.042;6.812;2022-09-27T02:22:15;12.50;99.90
31967;DHT22;18496;52.042;6.812;2022-09-27T02:24:22;12.50;99.90
31967;DHT22;18496;52.042;6.812;2022-09-27T02:26:39;12.40;99.90
31967;DHT22;18496;52.042;6.812;2022-09-27T02:29:06;12.40;99.90
31967;DHT22;18496;52.042;6.812;2022-09-27T02:31:18;12.40;99.90
31967;DHT22;18496;52.042;6.812;2022-09-27T02:33:23;12.40;99.90
31967;DHT22;18496;52.042;6.812;2022-09-27T02:35:33;12.30;99.90
31967;DHT22;18496;52.042;6.812;2022-09-27T02:37:36;12.30;99.90
31967;DHT22;18496;52.042;6.812;2022-09-27T02:39:40;12.30;99.90
31967;DHT22;18496;52.042;6.812;2022-09-27T02:41:46;12.30;99.90
31967;DHT22;18496;52.042;6.812;2022-09-27T02:43:54;12.30;99.90
31967;DHT22;18496;52.042;6.812;2022-09-27T02:48:21;12.30;99.90
31967;DHT22;18496;52.042;6.812;2022-09-27T02:50:35;12.20;99.90
31967;DHT22;18496;52.042;6.812;2022-09-27T02:52:49;12.20;99.90
31967;DHT22;18496;52.042;6.812;2022-09-27T02:59:49;12.20;99.90
31967;DHT22;18496;52.042;6.812;2022-09-27T03:05:12;12.10;99.90
31967;DHT22;18496;52.042;6.812;2022-09-27T03:07:19;12.10;99.90
31967;DHT22;18496;52.042;6.812;2022-09-27T03:09:27;12.20;99.90
31967;DHT22;18496;52.042;6.812;2022-09-27T03:11:34;12.10;99.90
31967;DHT22;18496;52.042;6.812;2022-09-27T03:13:41;12.20;99.90
31967;DHT22;18496;52.042;6.812;2022-09-27T03:15:45;12.20;99.90
31967;DHT22;18496;52.042;6.812;2022-09-27T03:17:57;12.20;99.90
31967;DHT22;18496;52.042;6.812;2022-09-27T03:20:13;12.10;99.90
31967;DHT22;18496;52.042;6.812;2022-09-27T03:22:29;12.10;99.90
31967;DHT22;18496;52.042;6.812;2022-09-27T03:24:32;12.10;99.90
31967;DHT22;18496;52.042;6.812;2022-09-27T03:26:39;12.10;99.90
31967;DHT22;18496;52.042;6.812;2022-09-27T03:28:46;12.00;99.90
31967;DHT22;18496;52.042;6.812;2022-09-27T03:30:49;12.00;99.90
31967;DHT22;18496;52.042;6.812;2022-09-27T03:33:13;12.00;99.90
31967;DHT22;18496;52.042;6.812;2022-09-27T03:35:25;12.00;99.90
31967;DHT22;18496;52.042;6.812;2022-09-27T03:37:28;12.00;99.90
31967;DHT22;18496;52.042;6.812;2022-09-27T03:39:32;11.90;99.90
31967;DHT22;18496;52.042;6.812;2022-09-27T03:41:39;11.90;99.90
31967;DHT22;18496;52.042;6.812;2022-09-27T03:43:43;11.90;99.90
31967;DHT22;18496;52.042;6.812;2022-09-27T03:45:47;11.90;99.90
31967;DHT22;18496;52.042;6.812;2022-09-27T03:47:51;11.80;99.90
31967;DHT22;18496;52.042;6.812;2022-09-27T03:49:54;11.80;99.90
31967;DHT22;18496;52.042;6.812;2022-09-27T03:51:58;11.80;99.90
31967;DHT22;18496;52.042;6.812;2022-09-27T03:54:02;11.80;99.90
31967;DHT22;18496;52.042;6.812;2022-09-27T03:56:05;11.80;99.90
31967;DHT22;18496;52.042;6.812;2022-09-27T03:58:10;11.80;99.90
31967;DHT22;18496;52.042;6.812;2022-09-27T04:00:14;11.70;99.90
31967;DHT22;18496;52.042;6.812;2022-09-27T04:02:18;11.70;99.90
31967;DHT22;18496;52.042;6.812;2022-09-27T04:04:40;11.60;99.90
31967;DHT22;18496;52.042;6.812;2022-09-27T04:06:43;11.60;99.90
31967;DHT22;18496;52.042;6.812;2022-09-27T04:08:47;11.60;99.90
31967;DHT22;18496;52.042;6.812;2022-09-27T04:10:51;11.60;99.90
31967;DHT22;18496;52.042;6.812;2022-09-27T04:12:54;11.60;99.90
31967;DHT22;18496;52.042;6.812;2022-09-27T04:15:00;11.50;99.90
31967;DHT22;18496;52.042;6.812;2022-09-27T04:17:27;11.50;99.90
31967;DHT22;18496;52.042;6.812;2022-09-27T04:19:53;11.50;99.90
31967;DHT22;18496;52.042;6.812;2022-09-27T04:21:57;11.50;99.90
31967;DHT22;18496;52.042;6.812;2022-09-27T04:24:01;11.60;99.90
31967;DHT22;18496;52.042;6.812;2022-09-27T04:26:04;11.60;99.90
31967;DHT22;18496;52.042;6.812;2022-09-27T04:28:25;11.60;99.90
31967;DHT22;18496;52.042;6.812;2022-09-27T04:30:30;11.50;99.90
31967;DHT22;18496;52.042;6.812;2022-09-27T04:32:49;11.50;99.90
31967;DHT22;18496;52.042;6.812;2022-09-27T04:35:31;11.50;99.90
31967;DHT22;18496;52.042;6.812;2022-09-27T04:37:54;11.50;99.90
31967;DHT22;18496;52.042;6.812;2022-09-27T04:39:57;11.50;99.90
31967;DHT22;18496;52.042;6.812;2022-09-27T04:42:01;11.50;99.90
31967;DHT22;18496;52.042;6.812;2022-09-27T04:44:05;11.60;99.90
31967;DHT22;18496;52.042;6.812;2022-09-27T04:46:09;11.50;99.90
31967;DHT22;18496;52.042;6.812;2022-09-27T04:48:12;11.60;99.90
31967;DHT22;18496;52.042;6.812;2022-09-27T04:50:16;11.60;99.90
31967;DHT22;18496;52.042;6.812;2022-09-27T04:52:38;11.60;99.90
31967;DHT22;18496;52.042;6.812;2022-09-27T04:54:42;11.60;99.90
31967;DHT22;18496;52.042;6.812;2022-09-27T04:56:48;11.60;99.90
31967;DHT22;18496;52.042;6.812;2022-09-27T04:58:52;11.60;99.90
31967;DHT22;18496;52.042;6.812;2022-09-27T05:00:58;11.60;99.90
31967;DHT22;18496;52.042;6.812;2022-09-27T05:03:21;11.60;99.90
31967;DHT22;18496;52.042;6.812;2022-09-27T05:05:32;11.60;99.90
31967;DHT22;18496;52.042;6.812;2022-09-27T05:07:36;11.60;99.90
31967;DHT22;18496;52.042;6.812;2022-09-27T05:09:45;11.60;99.90
31967;DHT22;18496;52.042;6.812;2022-09-27T05:11:48;11.60;99.90
31967;DHT22;18496;52.042;6.812;2022-09-27T05:13:52;11.60;99.90
31967;DHT22;18496;52.042;6.812;2022-09-27T05:16:00;11.60;99.90
31967;DHT22;18496;52.042;6.812;2022-09-27T05:18:31;11.60;99.90
31967;DHT22;18496;52.042;6.812;2022-09-27T05:21:10;11.50;99.90
31967;DHT22;18496;52.042;6.812;2022-09-27T05:23:20;11.50;99.90
31967;DHT22;18496;52.042;6.812;2022-09-27T05:25:24;11.50;99.90
31967;DHT22;18496;52.042;6.812;2022-09-27T05:27:27;11.40;99.90
31967;DHT22;18496;52.042;6.812;2022-09-27T05:29:33;11.40;99.90
31967;DHT22;18496;52.042;6.812;2022-09-27T05:31:50;11.40;99.90
31967;DHT22;18496;52.042;6.812;2022-09-27T05:33:54;11.40;99.90
31967;DHT22;18496;52.042;6.812;2022-09-27T05:36:16;11.40;99.90
31967;DHT22;18496;52.042;6.812;2022-09-27T05:38:20;11.40;99.90
31967;DHT22;18496;52.042;6.812;2022-09-27T05:40:26;11.30;99.90
31967;DHT22;18496;52.042;6.812;2022-09-27T05:42:31;11.30;99.90
31967;DHT22;18496;52.042;6.812;2022-09-27T05:44:36;11.30;99.90
31967;DHT22;18496;52.042;6.812;2022-09-27T05:46:41;11.30;99.90
31967;DHT22;18496;52.042;6.812;2022-09-27T05:48:45;11.30;99.90
31967;DHT22;18496;52.042;6.812;2022-09-27T05:50:48;11.30;99.90
31967;DHT22;18496;52.042;6.812;2022-09-27T05:52:52;11.30;99.90
31967;DHT22;18496;52.042;6.812;2022-09-27T05:54:57;11.30;99.90
31967;DHT22;18496;52.042;6.812;2022-09-27T05:57:00;11.30;99.90
31967;DHT22;18496;52.042;6.812;2022-09-27T05:59:21;11.30;99.90
31967;DHT22;18496;52.042;6.812;2022-09-27T06:01:51;11.30;99.90
31967;DHT22;18496;52.042;6.812;2022-09-27T06:04:32;11.30;99.90
31967;DHT22;18496;52.042;6.812;2022-09-27T06:06:56;11.30;99.90
31967;DHT22;18496;52.042;6.812;2022-09-27T06:09:01;11.30;99.90
31967;DHT22;18496;52.042;6.812;2022-09-27T06:11:06;11.30;99.90
31967;DHT22;18496;52.042;6.812;2022-09-27T06:13:10;11.30;99.90
31967;DHT22;18496;52.042;6.812;2022-09-27T06:15:17;11.30;99.90
31967;DHT22;18496;52.042;6.812;2022-09-27T06:17:22;11.30;99.90
31967;DHT22;18496;52.042;6.812;2022-09-27T06:19:26;11.30;99.90
31967;DHT22;18496;52.042;6.812;2022-09-27T06:21:29;11.30;99.90
31967;DHT22;18496;52.042;6.812;2022-09-27T06:23:35;11.30;99.90
31967;DHT22;18496;52.042;6.812;2022-09-27T06:25:51;11.30;99.90
31967;DHT22;18496;52.042;6.812;2022-09-27T06:27:57;11.30;99.90
31967;DHT22;18496;52.042;6.812;2022-09-27T06:30:05;11.30;99.90
31967;DHT22;18496;52.042;6.812;2022-09-27T06:32:27;11.20;99.90
31967;DHT22;18496;52.042;6.812;2022-09-27T06:34:35;11.30;99.90
31967;DHT22;18496;52.042;6.812;2022-09-27T06:36:38;11.30;99.90
31967;DHT22;18496;52.042;6.812;2022-09-27T06:38:42;11.30;99.90
31967;DHT22;18496;52.042;6.812;2022-09-27T06:40:50;11.30;99.90
31967;DHT22;18496;52.042;6.812;2022-09-27T06:43:13;11.30;99.90
31967;DHT22;18496;52.042;6.812;2022-09-27T06:45:44;11.30;99.90
31967;DHT22;18496;52.042;6.812;2022-09-27T06:48:06;11.30;99.90
31967;DHT22;18496;52.042;6.812;2022-09-27T06:50:17;11.30;99.90
31967;DHT22;18496;52.042;6.812;2022-09-27T06:52:21;11.40;99.90
31967;DHT22;18496;52.042;6.812;2022-09-27T06:54:24;11.40;99.90
31967;DHT22;18496;52.042;6.812;2022-09-27T06:56:28;11.40;99.90
31967;DHT22;18496;52.042;6.812;2022-09-27T06:58:31;11.40;99.90
31967;DHT22;18496;52.042;6.812;2022-09-27T07:01:13;11.40;99.90
31967;DHT22;18496;52.042;6.812;2022-09-27T07:03:54;11.50;99.90
31967;DHT22;18496;52.042;6.812;2022-09-27T07:06:19;11.50;99.90
31967;DHT22;18496;52.042;6.812;2022-09-27T07:08:35;11.50;99.90
31967;DHT22;18496;52.042;6.812;2022-09-27T07:10:39;11.50;99.90
31967;DHT22;18496;52.042;6.812;2022-09-27T07:12:43;11.50;99.90
31967;DHT22;18496;52.042;6.812;2022-09-27T07:14:52;11.50;99.90
31967;DHT22;18496;52.042;6.812;2022-09-27T07:16:56;11.50;99.90
31967;DHT22;18496;52.042;6.812;2022-09-27T07:19:01;11.50;99.90
31967;DHT22;18496;52.042;6.812;2022-09-27T07:21:05;11.50;99.90
31967;DHT22;18496;52.042;6.812;2022-09-27T07:23:11;11.50;99.90
31967;DHT22;18496;52.042;6.812;2022-09-27T07:25:15;11.60;99.90
31967;DHT22;18496;52.042;6.812;2022-09-27T07:27:19;11.60;99.90
31967;DHT22;18496;52.042;6.812;2022-09-27T07:29:22;11.60;99.90
31967;DHT22;18496;52.042;6.812;2022-09-27T07:31:29;11.70;99.90
31967;DHT22;18496;52.042;6.812;2022-09-27T07:33:33;11.70;99.90
31967;DHT22;18496;52.042;6.812;2022-09-27T07:35:38;11.70;99.90
31967;DHT22;18496;52.042;6.812;2022-09-27T07:37:42;11.70;99.90
31967;DHT22;18496;52.042;6.812;2022-09-27T07:39:47;11.70;99.90
31967;DHT22;18496;52.042;6.812;2022-09-27T07:41:51;11.70;99.90
31967;DHT22;18496;52.042;6.812;2022-09-27T07:43:55;11.70;99.90
31967;DHT22;18496;52.042;6.812;2022-09-27T07:46:02;11.70;99.90
31967;DHT22;18496;52.042;6.812;2022-09-27T07:48:25;11.80;99.90
31967;DHT22;18496;52.042;6.812;2022-09-27T07:50:38;11.90;99.90
31967;DHT22;18496;52.042;6.812;2022-09-27T07:52:57;11.90;99.90
31967;DHT22;18496;52.042;6.812;2022-09-27T07:55:10;12.00;99.90
31967;DHT22;18496;52.042;6.812;2022-09-27T07:57:27;12.00;99.90
31967;DHT22;18496;52.042;6.812;2022-09-27T07:59:35;12.00;99.90
31967;DHT22;18496;52.042;6.812;2022-09-27T08:01:40;12.00;99.90
31967;DHT22;18496;52.042;6.812;2022-09-27T08:03:44;12.00;99.90
31967;DHT22;18496;52.042;6.812;2022-09-27T08:05:49;11.90;99.90
31967;DHT22;18496;52.042;6.812;2022-09-27T08:07:53;12.00;99.90
31967;DHT22;18496;52.042;6.812;2022-09-27T08:09:57;12.00;99.90
31967;DHT22;18496;52.042;6.812;2022-09-27T08:12:00;12.00;99.90
31967;DHT22;18496;52.042;6.812;2022-09-27T08:14:08;12.00;99.90
31967;DHT22;18496;52.042;6.812;2022-09-27T08:16:11;12.00;99.90
31967;DHT22;18496;52.042;6.812;2022-09-27T08:18:48;11.90;99.90
31967;DHT22;18496;52.042;6.812;2022-09-27T08:21:14;12.00;99.90
31967;DHT22;18496;52.042;6.812;2022-09-27T08:23:26;12.00;99.90
31967;DHT22;18496;52.042;6.812;2022-09-27T08:25:51;12.00;99.90
31967;DHT22;18496;52.042;6.812;2022-09-27T08:28:12;12.00;99.90
31967;DHT22;18496;52.042;6.812;2022-09-27T08:30:20;12.10;99.90
31967;DHT22;18496;52.042;6.812;2022-09-27T08:32:23;12.10;99.90
31967;DHT22;18496;52.042;6.812;2022-09-27T08:34:28;12.10;99.90
31967;DHT22;18496;52.042;6.812;2022-09-27T08:36:32;12.10;99.90
31967;DHT22;18496;52.042;6.812;2022-09-27T08:38:38;12.10;99.90
31967;DHT22;18496;52.042;6.812;2022-09-27T08:40:50;12.10;99.90
31967;DHT22;18496;52.042;6.812;2022-09-27T08:43:01;12.10;99.90
31967;DHT22;18496;52.042;6.812;2022-09-27T08:45:08;12.10;99.90
31967;DHT22;18496;52.042;6.812;2022-09-27T08:47:16;12.10;99.90
31967;DHT22;18496;52.042;6.812;2022-09-27T08:49:44;12.10;99.90
31967;DHT22;18496;52.042;6.812;2022-09-27T08:51:47;12.10;99.90
31967;DHT22;18496;52.042;6.812;2022-09-27T08:53:52;12.10;99.90
31967;DHT22;18496;52.042;6.812;2022-09-27T08:55:58;12.10;99.90
31967;DHT22;18496;52.042;6.812;2022-09-27T08:58:11;12.10;99.90
31967;DHT22;18496;52.042;6.812;2022-09-27T09:00:16;12.10;99.90
31967;DHT22;18496;52.042;6.812;2022-09-27T09:02:21;12.20;99.90
31967;DHT22;18496;52.042;6.812;2022-09-27T09:04:36;12.10;99.90
31967;DHT22;18496;52.042;6.812;2022-09-27T09:06:42;12.10;99.90
31967;DHT22;18496;52.042;6.812;2022-09-27T09:11:21;12.20;99.90
31967;DHT22;18496;52.042;6.812;2022-09-27T09:16:31;12.20;99.90
31967;DHT22;18496;52.042;6.812;2022-09-27T09:18:43;12.30;99.90
31967;DHT22;18496;52.042;6.812;2022-09-27T09:21:05;12.30;99.90
31967;DHT22;18496;52.042;6.812;2022-09-27T09:25:33;12.40;99.90
31967;DHT22;18496;52.042;6.812;2022-09-27T09:27:45;12.40;99.90
31967;DHT22;18496;52.042;6.812;2022-09-27T09:34:42;12.40;99.90
31967;DHT22;18496;52.042;6.812;2022-09-27T09:36:51;12.40;99.90
31967;DHT22;18496;52.042;6.812;2022-09-27T09:44:04;12.50;99.90
31967;DHT22;18496;52.042;6.812;2022-09-27T09:48:41;12.60;99.90
31967;DHT22;18496;52.042;6.812;2022-09-27T09:50:48;12.60;99.90
31967;DHT22;18496;52.042;6.812;2022-09-27T09:53:14;12.70;99.90
31967;DHT22;18496;52.042;6.812;2022-09-27T09:55:20;12.70;99.90
31967;DHT22;18496;52.042;6.812;2022-09-27T09:57:32;12.70;99.90
31967;DHT22;18496;52.042;6.812;2022-09-27T09:59:50;12.80;99.90
31967;DHT22;18496;52.042;6.812;2022-09-27T10:01:58;12.80;99.90
31967;DHT22;18496;52.042;6.812;2022-09-27T10:04:04;12.80;99.90
31967;DHT22;18496;52.042;6.812;2022-09-27T10:06:08;12.70;99.90
31967;DHT22;18496;52.042;6.812;2022-09-27T10:08:20;12.70;99.90
31967;DHT22;18496;52.042;6.812;2022-09-27T10:10:31;12.70;99.90
31967;DHT22;18496;52.042;6.812;2022-09-27T10:13:04;12.70;99.90
31967;DHT22;18496;52.042;6.812;2022-09-27T10:15:16;12.70;99.90
31967;DHT22;18496;52.042;6.812;2022-09-27T10:17:21;12.60;99.90
31967;DHT22;18496;52.042;6.812;2022-09-27T10:19:28;12.60;99.90
31967;DHT22;18496;52.042;6.812;2022-09-27T10:21:33;12.60;99.90
31967;DHT22;18496;52.042;6.812;2022-09-27T10:26:16;12.60;99.90
31967;DHT22;18496;52.042;6.812;2022-09-27T10:30:35;12.80;99.90
31967;DHT22;18496;52.042;6.812;2022-09-27T10:32:51;12.80;99.90
31967;DHT22;18496;52.042;6.812;2022-09-27T10:35:48;12.80;99.90
31967;DHT22;18496;52.042;6.812;2022-09-27T10:37:48;12.90;99.90
31967;DHT22;18496;52.042;6.812;2022-09-27T10:39:52;12.90;99.90
31967;DHT22;18496;52.042;6.812;2022-09-27T10:41:56;12.80;99.90
31967;DHT22;18496;52.042;6.812;2022-09-27T10:46:23;12.80;99.90
31967;DHT22;18496;52.042;6.812;2022-09-27T10:48:31;12.80;99.90
31967;DHT22;18496;52.042;6.812;2022-09-27T10:50:35;12.80;99.90
31967;DHT22;18496;52.042;6.812;2022-09-27T10:53:15;12.80;99.90
31967;DHT22;18496;52.042;6.812;2022-09-27T10:55:23;12.80;99.90
31967;DHT22;18496;52.042;6.812;2022-09-27T10:57:30;12.80;99.90
31967;DHT22;18496;52.042;6.812;2022-09-27T10:59:35;12.90;99.90
31967;DHT22;18496;52.042;6.812;2022-09-27T11:01:43;12.90;99.90
31967;DHT22;18496;52.042;6.812;2022-09-27T11:03:56;12.90;99.90
31967;DHT22;18496;52.042;6.812;2022-09-27T11:06:17;12.90;99.90
31967;DHT22;18496;52.042;6.812;2022-09-27T11:08:22;12.90;99.90
31967;DHT22;18496;52.042;6.812;2022-09-27T11:11:03;12.90;99.90
31967;DHT22;18496;52.042;6.812;2022-09-27T11:15:14;13.00;99.90
31967;DHT22;18496;52.042;6.812;2022-09-27T11:17:31;12.90;99.90
31967;DHT22;18496;52.042;6.812;2022-09-27T11:24:01;12.80;99.90
31967;DHT22;18496;52.042;6.812;2022-09-27T11:28:30;12.80;99.90
31967;DHT22;18496;52.042;6.812;2022-09-27T11:33:38;12.80;99.90
31967;DHT22;18496;52.042;6.812;2022-09-27T11:40:56;13.00;99.90
31967;DHT22;18496;52.042;6.812;2022-09-27T11:45:21;13.00;99.90
31967;DHT22;18496;52.042;6.812;2022-09-27T11:47:38;12.90;99.90
31967;DHT22;18496;52.042;6.812;2022-09-27T11:54:26;12.70;99.90
31967;DHT22;18496;52.042;6.812;2022-09-27T12:01:00;12.60;99.90
31967;DHT22;18496;52.042;6.812;2022-09-27T12:07:42;12.70;99.90
31967;DHT22;18496;52.042;6.812;2022-09-27T12:09:52;12.60;99.90
31967;DHT22;18496;52.042;6.812;2022-09-27T12:14:21;12.60;99.90
31967;DHT22;18496;52.042;6.812;2022-09-27T12:16:30;12.50;99.90
31967;DHT22;18496;52.042;6.812;2022-09-27T12:18:35;12.50;99.90
31967;DHT22;18496;52.042;6.812;2022-09-27T12:20:47;12.50;99.90
31967;DHT22;18496;52.042;6.812;2022-09-27T12:22:53;12.50;99.90
31967;DHT22;18496;52.042;6.812;2022-09-27T12:25:01;12.50;99.90
31967;DHT22;18496;52.042;6.812;2022-09-27T12:27:19;12.60;99.90
31967;DHT22;18496;52.042;6.812;2022-09-27T12:29:34;12.60;99.90
31967;DHT22;18496;52.042;6.812;2022-09-27T12:36:38;12.70;99.90
31967;DHT22;18496;52.042;6.812;2022-09-27T12:39:01;12.80;99.90
31967;DHT22;18496;52.042;6.812;2022-09-27T12:49:11;13.00;99.90
31967;DHT22;18496;52.042;6.812;2022-09-27T12:51:19;13.00;99.90
31967;DHT22;18496;52.042;6.812;2022-09-27T12:53:28;13.00;99.90
31967;DHT22;18496;52.042;6.812;2022-09-27T12:55:38;13.00;99.90
31967;DHT22;18496;52.042;6.812;2022-09-27T13:04:13;13.00;99.90
31967;DHT22;18496;52.042;6.812;2022-09-27T13:08:40;13.00;99.90
31967;DHT22;18496;52.042;6.812;2022-09-27T13:13:01;13.10;99.90
31967;DHT22;18496;52.042;6.812;2022-09-27T13:19:42;13.20;99.90
31967;DHT22;18496;52.042;6.812;2022-09-27T13:26:53;13.20;99.90
31967;DHT22;18496;52.042;6.812;2022-09-27T13:28:59;13.20;99.90
31967;DHT22;18496;52.042;6.812;2022-09-27T13:31:15;13.20;99.90
31967;DHT22;18496;52.042;6.812;2022-09-27T13:33:20;13.20;99.90
31967;DHT22;18496;52.042;6.812;2022-09-27T13:35:32;13.30;99.90
31967;DHT22;18496;52.042;6.812;2022-09-27T13:37:53;13.30;99.90
31967;DHT22;18496;52.042;6.812;2022-09-27T13:42:32;13.40;99.90
31967;DHT22;18496;52.042;6.812;2022-09-27T13:44:42;13.50;99.90
31967;DHT22;18496;52.042;6.812;2022-09-27T13:46:48;13.50;99.90
31967;DHT22;18496;52.042;6.812;2022-09-27T13:49:02;13.50;99.90
31967;DHT22;18496;52.042;6.812;2022-09-27T13:51:48;13.50;99.90
31967;DHT22;18496;52.042;6.812;2022-09-27T13:53:55;13.50;99.90
31967;DHT22;18496;52.042;6.812;2022-09-27T13:55:59;13.50;99.90
31967;DHT22;18496;52.042;6.812;2022-09-27T14:00:31;13.50;99.90
31967;DHT22;18496;52.042;6.812;2022-09-27T14:02:44;13.50;99.90
31967;DHT22;18496;52.042;6.812;2022-09-27T14:04:51;13.50;99.90
31967;DHT22;18496;52.042;6.812;2022-09-27T14:06:57;13.50;99.90
31967;DHT22;18496;52.042;6.812;2022-09-27T14:09:03;13.60;99.90
31967;DHT22;18496;52.042;6.812;2022-09-27T14:11:12;13.60;99.90
31967;DHT22;18496;52.042;6.812;2022-09-27T14:13:18;13.50;99.90
31967;DHT22;18496;52.042;6.812;2022-09-27T14:15:30;13.50;99.90
31967;DHT22;18496;52.042;6.812;2022-09-27T14:17:40;13.50;99.90
31967;DHT22;18496;52.042;6.812;2022-09-27T14:19:48;13.50;99.90
31967;DHT22;18496;52.042;6.812;2022-09-27T14:21:54;13.50;99.90
31967;DHT22;18496;52.042;6.812;2022-09-27T14:26:27;13.50;99.90
31967;DHT22;18496;52.042;6.812;2022-09-27T14:28:38;13.40;99.90
31967;DHT22;18496;52.042;6.812;2022-09-27T14:33:38;13.40;99.90
31967;DHT22;18496;52.042;6.812;2022-09-27T14:35:47;13.40;99.90
31967;DHT22;18496;52.042;6.812;2022-09-27T14:38:10;13.40;99.90
31967;DHT22;18496;52.042;6.812;2022-09-27T14:40:18;13.40;99.90
31967;DHT22;18496;52.042;6.812;2022-09-27T14:42:23;13.50;99.90
31967;DHT22;18496;52.042;6.812;2022-09-27T14:44:27;13.50;99.90
31967;DHT22;18496;52.042;6.812;2022-09-27T14:46:31;13.50;99.90
31967;DHT22;18496;52.042;6.812;2022-09-27T14:48:35;13.60;99.90
31967;DHT22;18496;52.042;6.812;2022-09-27T14:50:39;13.70;99.90
31967;DHT22;18496;52.042;6.812;2022-09-27T14:52:43;13.60;99.90
31967;DHT22;18496;52.042;6.812;2022-09-27T14:54:57;13.60;99.90
31967;DHT22;18496;52.042;6.812;2022-09-27T14:57:01;13.60;99.90
31967;DHT22;18496;52.042;6.812;2022-09-27T14:59:13;13.60;99.90
31967;DHT22;18496;52.042;6.812;2022-09-27T15:01:18;13.60;99.90
31967;DHT22;18496;52.042;6.812;2022-09-27T15:03:23;13.60;99.90
31967;DHT22;18496;52.042;6.812;2022-09-27T15:05:28;13.70;99.90
31967;DHT22;18496;52.042;6.812;2022-09-27T15:07:32;13.60;99.90
31967;DHT22;18496;52.042;6.812;2022-09-27T15:09:36;13.60;99.90
31967;DHT22;18496;52.042;6.812;2022-09-27T15:11:40;13.60;99.90
31967;DHT22;18496;52.042;6.812;2022-09-27T15:13:45;13.70;99.90
31967;DHT22;18496;52.042;6.812;2022-09-27T15:15:53;13.70;99.90
31967;DHT22;18496;52.042;6.812;2022-09-27T15:17:58;13.70;99.90
31967;DHT22;18496;52.042;6.812;2022-09-27T15:20:16;13.70;99.90
31967;DHT22;18496;52.042;6.812;2022-09-27T15:22:21;13.70;99.90
31967;DHT22;18496;52.042;6.812;2022-09-27T15:24:38;13.70;99.90
31967;DHT22;18496;52.042;6.812;2022-09-27T15:26:43;13.70;99.90
31967;DHT22;18496;52.042;6.812;2022-09-27T15:28:49;13.70;99.90
31967;DHT22;18496;52.042;6.812;2022-09-27T15:30:55;13.70;99.90
31967;DHT22;18496;52.042;6.812;2022-09-27T15:32:59;13.70;99.90
31967;DHT22;18496;52.042;6.812;2022-09-27T15:35:06;13.60;99.90
31967;DHT22;18496;52.042;6.812;2022-09-27T15:37:24;13.50;99.90
31967;DHT22;18496;52.042;6.812;2022-09-27T15:39:29;13.50;99.90
31967;DHT22;18496;52.042;6.812;2022-09-27T15:43:56;13.50;99.90
31967;DHT22;18496;52.042;6.812;2022-09-27T15:46:01;13.50;99.90
31967;DHT22;18496;52.042;6.812;2022-09-27T15:48:13;13.50;99.90
31967;DHT22;18496;52.042;6.812;2022-09-27T15:52:39;13.50;99.90
31967;DHT22;18496;52.042;6.812;2022-09-27T15:54:43;13.60;99.90
31967;DHT22;18496;52.042;6.812;2022-09-27T15:56:47;13.60;99.90
31967;DHT22;18496;52.042;6.812;2022-09-27T15:58:51;13.60;99.90
31967;DHT22;18496;52.042;6.812;2022-09-27T16:00:57;13.60;99.90
31967;DHT22;18496;52.042;6.812;2022-09-27T16:03:01;13.60;99.90